createdAt,value
2022-07-25T00:01:12.061Z,21.17
2022-07-25T00:03:39.218Z,21.20
2022-07-25T00:06:06.677Z,21.13
2022-07-25T00:08:39.995Z,21.15
2022-07-25T00:11:06.476Z,21.14
2022-07-25T00:13:32.923Z,21.16
2022-07-25T00:15:59.500Z,21.14
2022-07-25T00:18:26.872Z,21.19
2022-07-25T00:20:53.363Z,21.12
2022-07-25T00:23:19.946Z,21.09
2022-07-25T00:25:46.398Z,21.11
2022-07-25T00:28:12.863Z,21.11
2022-07-25T00:30:39.333Z,21.11
2022-07-25T00:33:06.111Z,21.11
2022-07-25T00:35:32.538Z,21.07
2022-07-25T00:37:58.950Z,21.07
2022-07-25T00:40:25.444Z,21.12
2022-07-25T00:42:52.225Z,21.15
2022-07-25T00:45:18.749Z,21.16
2022-07-25T00:47:45.179Z,21.15
2022-07-25T00:50:11.735Z,21.15
2022-07-25T00:52:38.318Z,21.18
2022-07-25T00:55:05.284Z,21.13
2022-07-25T00:57:31.715Z,21.12
2022-07-25T00:59:58.329Z,21.15
2022-07-25T01:02:24.916Z,21.14
2022-07-25T01:04:51.406Z,21.12
2022-07-25T01:07:18.276Z,21.10
2022-07-25T01:09:44.782Z,21.09
2022-07-25T01:12:11.250Z,21.11
2022-07-25T01:14:38.372Z,21.12
2022-07-25T01:17:17.492Z,21.08
2022-07-25T01:19:43.958Z,21.08
2022-07-25T01:22:10.390Z,21.06
2022-07-25T01:24:37.240Z,21.01
2022-07-25T01:27:03.833Z,20.97
2022-07-25T01:29:30.256Z,21.00
2022-07-25T01:31:56.720Z,21.00
2022-07-25T01:34:23.155Z,20.97
2022-07-25T01:36:49.639Z,20.98
2022-07-25T01:39:16.080Z,20.97
2022-07-25T01:41:42.500Z,20.94
2022-07-25T01:44:09.317Z,20.85
2022-07-25T01:46:36.037Z,20.84
2022-07-25T01:49:11.795Z,20.84
2022-07-25T01:51:38.292Z,20.82
2022-07-25T01:54:06.745Z,20.81
2022-07-25T01:56:36.830Z,20.80
2022-07-25T01:59:03.300Z,20.78
2022-07-25T02:01:29.767Z,20.79
2022-07-25T02:03:56.296Z,20.80
2022-07-25T02:06:22.736Z,20.84
2022-07-25T02:08:49.179Z,20.79
2022-07-25T02:11:16.440Z,20.79
2022-07-25T02:13:43.049Z,20.76
2022-07-25T02:16:29.015Z,20.69
2022-07-25T02:18:56.591Z,20.71
2022-07-25T02:21:23.037Z,20.74
2022-07-25T02:23:55.408Z,20.73
2022-07-25T02:26:21.994Z,20.73
2022-07-25T02:28:49.985Z,20.71
2022-07-25T02:31:16.501Z,20.66
2022-07-25T02:33:43.538Z,20.60
2022-07-25T02:36:11.055Z,20.64
2022-07-25T02:38:38.040Z,20.64
2022-07-25T02:41:05.041Z,20.64
2022-07-25T02:43:31.544Z,20.63
2022-07-25T02:45:58.069Z,20.64
2022-07-25T02:48:24.569Z,20.60
2022-07-25T02:50:51.026Z,20.60
2022-07-25T02:53:28.940Z,20.51
2022-07-25T02:56:04.138Z,20.53
2022-07-25T02:58:32.452Z,20.52
2022-07-25T03:00:58.931Z,20.54
2022-07-25T03:03:25.401Z,20.24
2022-07-25T03:05:52.007Z,20.36
2022-07-25T03:08:18.450Z,20.17
2022-07-25T03:10:44.895Z,20.16
2022-07-25T03:13:11.318Z,20.21
2022-07-25T03:15:38.251Z,20.10
2022-07-25T03:18:04.698Z,20.10
2022-07-25T03:20:31.139Z,20.11
2022-07-25T03:22:57.605Z,20.12
2022-07-25T03:25:24.066Z,20.13
2022-07-25T03:27:50.816Z,20.20
2022-07-25T03:30:17.381Z,20.21
2022-07-25T03:32:43.823Z,20.18
2022-07-25T03:35:10.281Z,20.18
2022-07-25T03:37:36.714Z,20.20
2022-07-25T03:40:04.158Z,20.19
2022-07-25T03:42:35.360Z,20.16
2022-07-25T03:45:02.234Z,20.02
2022-07-25T03:47:28.669Z,20.06
2022-07-25T03:49:55.247Z,20.13
2022-07-25T03:52:21.684Z,20.08
2022-07-25T03:54:48.144Z,20.12
2022-07-25T03:57:14.580Z,20.07
2022-07-25T03:59:41.061Z,19.96
2022-07-25T04:02:07.793Z,19.92
2022-07-25T04:04:34.360Z,19.96
2022-07-25T04:07:00.821Z,19.93
2022-07-25T04:09:27.251Z,19.78
2022-07-25T04:11:58.831Z,19.95
2022-07-25T04:14:25.281Z,19.94
2022-07-25T04:16:51.825Z,19.94
2022-07-25T04:19:18.325Z,20.02
2022-07-25T04:21:45.105Z,20.03
2022-07-25T04:24:11.543Z,20.03
2022-07-25T04:26:37.983Z,19.99
2022-07-25T04:29:04.415Z,20.07
2022-07-25T04:31:31.094Z,20.10
2022-07-25T04:33:58.447Z,20.17
2022-07-25T04:36:24.988Z,20.24
2022-07-25T04:38:51.511Z,20.26
2022-07-25T04:41:17.977Z,20.22
2022-07-25T04:43:48.483Z,20.22
2022-07-25T04:46:20.237Z,20.37
2022-07-25T04:48:46.859Z,20.41
2022-07-25T04:51:14.610Z,20.54
2022-07-25T04:53:41.048Z,20.56
2022-07-25T04:56:10.447Z,20.69
2022-07-25T04:58:37.346Z,20.77
2022-07-25T05:01:03.805Z,20.85
2022-07-25T05:03:30.267Z,20.91
2022-07-25T05:05:56.728Z,20.98
2022-07-25T05:08:23.185Z,21.03
2022-07-25T05:10:49.608Z,21.15
2022-07-25T05:13:16.265Z,21.19
2022-07-25T05:15:42.726Z,21.26
2022-07-25T05:18:09.147Z,21.35
2022-07-25T05:20:35.584Z,21.42
2022-07-25T05:23:02.034Z,21.51
2022-07-25T05:25:29.273Z,21.66
2022-07-25T05:27:58.329Z,21.78
2022-07-25T05:30:25.073Z,21.87
2022-07-25T05:32:51.487Z,22.02
2022-07-25T05:35:17.912Z,22.15
2022-07-25T05:37:44.351Z,22.25
2022-07-25T05:40:10.949Z,22.22
2022-07-25T05:42:37.503Z,22.31
2022-07-25T05:45:04.701Z,22.55
2022-07-25T05:47:31.544Z,22.79
2022-07-25T05:49:58.043Z,22.95
2022-07-25T05:52:24.484Z,23.14
2022-07-25T05:54:51.185Z,23.36
2022-07-25T05:57:17.705Z,23.43
2022-07-25T06:00:09.688Z,23.47
2022-07-25T06:02:36.325Z,23.59
2022-07-25T06:05:03.427Z,23.83
2022-07-25T06:07:29.866Z,24.02
2022-07-25T06:09:56.332Z,24.40
2022-07-25T06:12:24.415Z,24.50
2022-07-25T06:14:51.165Z,24.54
2022-07-25T06:17:18.043Z,24.61
2022-07-25T06:19:44.465Z,24.75
2022-07-25T06:22:11.370Z,25.11
2022-07-25T06:24:38.522Z,25.49
2022-07-25T06:27:04.982Z,25.78
2022-07-25T06:29:31.412Z,25.98
2022-07-25T06:31:57.868Z,26.00
2022-07-25T06:34:28.524Z,26.00
2022-07-25T06:36:55.272Z,26.36
2022-07-25T06:39:21.703Z,26.51
2022-07-25T06:41:48.145Z,26.62
2022-07-25T06:44:17.294Z,26.78
2022-07-25T06:46:43.771Z,26.91
2022-07-25T06:49:10.348Z,27.27
2022-07-25T06:51:36.870Z,27.40
2022-07-25T06:54:04.059Z,27.47
2022-07-25T06:56:32.835Z,27.66
2022-07-25T06:59:00.318Z,27.82
2022-07-25T07:01:27.013Z,27.99
2022-07-25T07:03:53.567Z,28.00
2022-07-25T07:06:20.039Z,28.08
2022-07-25T07:08:46.498Z,28.40
2022-07-25T07:11:15.256Z,28.43
2022-07-25T07:13:41.717Z,28.51
2022-07-25T07:16:08.801Z,28.60
2022-07-25T07:18:35.578Z,28.96
2022-07-25T07:21:01.992Z,29.20
2022-07-25T07:23:28.980Z,29.31
2022-07-25T07:25:55.842Z,29.44
2022-07-25T07:28:22.460Z,29.66
2022-07-25T07:33:37.882Z,29.89
2022-07-25T07:36:04.521Z,30.12
2022-07-25T07:38:30.954Z,30.27
2022-07-25T07:40:57.417Z,30.37
2022-07-25T07:43:29.165Z,30.43
2022-07-25T07:45:56.878Z,30.46
2022-07-25T07:48:23.339Z,30.71
2022-07-25T07:50:49.773Z,30.83
2022-07-25T07:53:16.213Z,31.09
2022-07-25T07:55:45.501Z,31.12
2022-07-25T07:58:15.737Z,31.05
2022-07-25T08:00:44.148Z,31.05
2022-07-25T08:03:10.829Z,31.25
2022-07-25T08:05:43.308Z,31.36
2022-07-25T08:08:12.046Z,31.69
2022-07-25T08:10:40.952Z,31.74
2022-07-25T08:13:15.949Z,31.77
2022-07-25T08:15:44.645Z,31.79
2022-07-25T08:18:17.413Z,31.98
2022-07-25T08:20:48.513Z,32.00
2022-07-25T08:23:15.267Z,31.92
2022-07-25T08:25:42.466Z,32.16
2022-07-25T08:28:09.409Z,32.32
2022-07-25T08:30:45.332Z,32.34
2022-07-25T08:33:13.960Z,32.35
2022-07-25T08:35:45.449Z,32.49
2022-07-25T08:38:11.892Z,32.31
2022-07-25T08:40:38.510Z,32.54
2022-07-25T08:43:04.971Z,32.77
2022-07-25T08:45:33.259Z,32.85
2022-07-25T08:47:59.715Z,32.98
2022-07-25T08:50:28.576Z,32.94
2022-07-25T08:53:10.428Z,33.21
2022-07-25T08:55:45.076Z,33.17
2022-07-25T08:58:14.158Z,33.11
2022-07-25T09:00:41.871Z,33.38
2022-07-25T09:03:08.787Z,33.32
2022-07-25T09:05:37.254Z,33.40
2022-07-25T09:08:12.853Z,33.82
2022-07-25T09:10:42.336Z,33.75
2022-07-25T09:13:14.243Z,33.88
2022-07-25T09:15:50.155Z,34.08
2022-07-25T09:18:18.972Z,34.06
2022-07-25T09:21:11.766Z,34.08
2022-07-25T09:23:39.269Z,34.05
2022-07-25T09:26:13.535Z,34.05
2022-07-25T09:28:40.864Z,34.11
2022-07-25T09:31:07.399Z,34.36
2022-07-25T09:33:33.871Z,34.50
2022-07-25T09:36:11.187Z,34.86
2022-07-25T09:38:37.981Z,34.42
2022-07-25T09:41:04.561Z,34.63
2022-07-25T09:43:40.710Z,34.95
2022-07-25T09:46:08.158Z,34.95
2022-07-25T09:48:36.494Z,35.08
2022-07-25T09:51:03.514Z,35.22
2022-07-25T09:53:30.116Z,35.35
2022-07-25T09:55:57.476Z,35.12
2022-07-25T09:58:25.628Z,35.29
2022-07-25T10:01:05.500Z,35.46
2022-07-25T10:03:53.525Z,35.44
2022-07-25T10:06:24.953Z,35.46
2022-07-25T10:08:51.972Z,35.26
2022-07-25T10:11:27.729Z,35.60
2022-07-25T10:13:55.140Z,35.86
2022-07-25T10:16:27.180Z,35.76
2022-07-25T10:18:55.847Z,35.89
2022-07-25T10:21:27.212Z,35.96
2022-07-25T10:24:20.144Z,35.76
2022-07-25T10:26:53.504Z,35.44
2022-07-25T10:29:19.942Z,35.69
2022-07-25T10:31:50.945Z,35.95
2022-07-25T10:34:30.642Z,35.60
2022-07-25T10:37:09.702Z,35.85
2022-07-25T10:39:42.147Z,36.22
2022-07-25T10:42:13.505Z,36.42
2022-07-25T10:44:42.732Z,36.39
2022-07-25T10:47:12.089Z,36.30
2022-07-25T10:50:06.852Z,35.97
2022-07-25T10:52:31.641Z,36.21
2022-07-25T10:54:59.944Z,36.10
2022-07-25T10:57:31.695Z,36.36
2022-07-25T11:00:06.540Z,36.65
2022-07-25T11:02:33.242Z,36.49
2022-07-25T11:05:04.172Z,36.64
2022-07-25T11:07:36.015Z,36.60
2022-07-25T11:10:05.500Z,36.44
2022-07-25T11:12:32.402Z,36.13
2022-07-25T11:15:04.518Z,36.39
2022-07-25T11:17:31.066Z,36.53
2022-07-25T11:20:07.134Z,36.47
2022-07-25T11:22:34.489Z,36.66
2022-07-25T11:25:01.782Z,36.75
2022-07-25T11:27:33.247Z,36.71
2022-07-25T11:30:19.874Z,36.92
2022-07-25T11:32:51.993Z,36.76
2022-07-25T11:35:22.546Z,36.44
2022-07-25T11:37:50.763Z,36.23
2022-07-25T11:40:18.730Z,36.64
2022-07-25T11:42:48.380Z,36.85
2022-07-25T11:45:25.515Z,37.15
2022-07-25T11:48:09.859Z,36.88
2022-07-25T11:50:41.673Z,37.06
2022-07-25T11:53:10.821Z,37.20
2022-07-25T11:55:42.817Z,37.03
2022-07-25T11:58:10.961Z,37.12
2022-07-25T12:00:48.587Z,36.76
2022-07-25T12:03:20.189Z,36.84
2022-07-25T12:05:48.641Z,37.26
2022-07-25T12:08:20.356Z,37.24
2022-07-25T12:10:49.103Z,37.22
2022-07-25T12:13:26.969Z,37.39
2022-07-25T12:15:55.723Z,37.21
2022-07-25T12:18:22.198Z,37.55
2022-07-25T12:20:48.661Z,37.60
2022-07-25T12:23:15.115Z,37.52
2022-07-25T12:25:43.930Z,37.51
2022-07-25T12:28:11.418Z,37.47
2022-07-25T12:30:41.469Z,37.25
2022-07-25T12:33:07.945Z,37.38
2022-07-25T12:35:37.170Z,37.46
2022-07-25T12:38:04.546Z,37.27
2022-07-25T12:40:31.147Z,37.65
2022-07-25T12:42:58.818Z,37.54
2022-07-25T12:45:25.704Z,37.36
2022-07-25T12:47:52.122Z,37.49
2022-07-25T12:50:18.576Z,37.55
2022-07-25T12:52:45.683Z,37.43
2022-07-25T12:55:18.621Z,37.56
2022-07-25T12:57:46.335Z,37.44
2022-07-25T13:00:15.889Z,37.49
2022-07-25T13:02:42.443Z,37.25
2022-07-25T13:05:09.408Z,37.27
2022-07-25T13:07:36.170Z,37.18
2022-07-25T13:10:03.822Z,36.79
2022-07-25T13:12:30.266Z,36.85
2022-07-25T13:14:56.760Z,36.81
2022-07-25T13:17:27.306Z,36.70
2022-07-25T13:19:55.370Z,36.76
2022-07-25T13:22:21.808Z,36.77
2022-07-25T13:24:48.256Z,36.64
2022-07-25T13:27:15.192Z,36.64
2022-07-25T13:29:41.627Z,36.50
2022-07-25T13:32:10.176Z,36.68
2022-07-25T13:34:36.803Z,36.70
2022-07-25T13:37:04.493Z,36.63
2022-07-25T13:39:31.038Z,36.86
2022-07-25T13:41:57.510Z,37.19
2022-07-25T13:44:23.935Z,37.35
2022-07-25T13:46:50.595Z,37.47
2022-07-25T13:49:18.103Z,37.58
2022-07-25T13:51:45.545Z,37.87
2022-07-25T13:54:12.407Z,37.86
2022-07-25T13:56:38.913Z,37.83
2022-07-25T13:59:05.721Z,37.72
2022-07-25T14:01:32.337Z,37.65
2022-07-25T14:03:58.888Z,37.70
2022-07-25T14:06:25.331Z,37.38
2022-07-25T14:08:51.760Z,37.77
2022-07-25T14:11:18.190Z,37.71
2022-07-25T14:13:45.229Z,37.61
2022-07-25T14:16:16.345Z,37.43
2022-07-25T14:18:42.762Z,37.47
2022-07-25T14:21:09.255Z,37.20
2022-07-25T14:23:35.692Z,37.04
2022-07-25T14:26:02.155Z,36.93
2022-07-25T14:28:29.672Z,36.79
2022-07-25T14:30:56.592Z,36.83
2022-07-25T14:33:23.028Z,36.71
2022-07-25T14:35:49.483Z,36.63
2022-07-25T14:38:15.942Z,36.60
2022-07-25T14:40:42.698Z,36.59
2022-07-25T14:43:09.124Z,36.56
2022-07-25T14:45:36.983Z,36.37
2022-07-25T14:48:06.148Z,36.37
2022-07-25T14:50:32.567Z,36.12
2022-07-25T14:52:58.999Z,36.12
2022-07-25T14:55:25.793Z,36.14
2022-07-25T14:57:52.352Z,36.02
2022-07-25T15:00:18.859Z,36.03
2022-07-25T15:02:45.346Z,35.92
2022-07-25T15:05:11.850Z,35.95
2022-07-25T15:07:38.333Z,35.91
2022-07-25T15:10:05.308Z,35.94
2022-07-25T15:12:31.816Z,35.99
2022-07-25T15:14:58.265Z,35.80
2022-07-25T15:17:24.776Z,35.89
2022-07-25T15:19:51.309Z,35.94
2022-07-25T15:22:17.811Z,35.91
2022-07-25T15:25:21.436Z,35.78
2022-07-25T15:27:31.132Z,35.93
2022-07-25T15:29:58.232Z,35.90
2022-07-25T15:32:24.671Z,36.04
2022-07-25T15:34:51.142Z,36.08
2022-07-25T15:37:17.610Z,36.24
2022-07-25T15:39:45.341Z,36.34
2022-07-25T15:42:12.187Z,36.27
2022-07-25T15:44:38.620Z,36.26
2022-07-25T15:47:06.728Z,36.36
2022-07-25T15:49:33.386Z,36.45
2022-07-25T15:52:00.157Z,36.45
2022-07-25T15:54:29.501Z,36.42
2022-07-25T15:56:56.363Z,36.34
2022-07-25T15:59:22.991Z,36.26
2022-07-25T16:01:49.420Z,36.23
2022-07-25T16:04:16.002Z,36.30
2022-07-25T16:06:42.608Z,36.09
2022-07-25T16:09:09.257Z,35.91
2022-07-25T16:11:38.182Z,35.88
2022-07-25T16:14:05.387Z,35.82
2022-07-25T16:16:31.900Z,35.75
2022-07-25T16:18:58.352Z,35.50
2022-07-25T16:21:24.820Z,35.46
2022-07-25T16:23:51.268Z,35.61
2022-07-25T16:26:17.738Z,35.68
2022-07-25T16:28:44.239Z,35.65
2022-07-25T16:31:10.796Z,35.50
2022-07-25T16:33:37.991Z,35.25
2022-07-25T16:36:04.889Z,34.31
2022-07-25T16:38:31.600Z,33.90
2022-07-25T16:40:58.033Z,33.26
2022-07-25T16:43:24.777Z,32.64
2022-07-25T16:45:51.541Z,32.68
2022-07-25T16:48:18.153Z,32.47
2022-07-25T16:50:44.662Z,32.14
2022-07-25T16:53:11.091Z,32.11
2022-07-25T16:55:38.347Z,31.87
2022-07-25T16:58:04.827Z,31.69
2022-07-25T17:00:31.282Z,31.65
2022-07-25T17:02:58.497Z,31.62
2022-07-25T17:05:25.051Z,31.64
2022-07-25T17:07:57.245Z,31.14
2022-07-25T17:10:25.230Z,31.15
2022-07-25T17:12:51.691Z,30.89
2022-07-25T17:15:18.195Z,30.79
2022-07-25T17:17:44.613Z,30.76
2022-07-25T17:20:11.568Z,30.84
2022-07-25T17:22:38.784Z,30.87
2022-07-25T17:25:06.428Z,30.74
2022-07-25T17:27:32.872Z,30.82
2022-07-25T17:29:59.299Z,30.86
2022-07-25T17:32:29.744Z,30.63
2022-07-25T17:34:57.244Z,30.44
2022-07-25T17:37:24.341Z,30.49
2022-07-25T17:39:50.851Z,30.43
2022-07-25T17:42:22.092Z,30.31
2022-07-25T17:44:50.135Z,30.26
2022-07-25T17:47:16.671Z,30.29
2022-07-25T17:49:43.127Z,30.08
2022-07-25T17:52:12.209Z,29.96
2022-07-25T17:54:42.602Z,29.95
2022-07-25T17:57:08.995Z,29.66
2022-07-25T17:59:35.645Z,29.66
2022-07-25T18:02:03.050Z,29.48
2022-07-25T18:04:29.623Z,29.56
2022-07-25T18:06:57.244Z,29.46
2022-07-25T18:09:24.216Z,29.46
2022-07-25T18:11:50.946Z,29.29
2022-07-25T18:14:17.363Z,29.12
2022-07-25T18:16:45.384Z,29.08
2022-07-25T18:19:12.200Z,28.99
2022-07-25T18:21:38.727Z,28.90
2022-07-25T18:24:05.971Z,28.86
2022-07-25T18:26:33.656Z,28.95
2022-07-25T18:29:00.302Z,28.85
2022-07-25T18:31:26.794Z,28.70
2022-07-25T18:33:53.253Z,28.77
2022-07-25T18:36:20.437Z,28.89
2022-07-25T18:38:48.364Z,28.89
2022-07-25T18:41:30.613Z,28.87
2022-07-25T18:43:57.342Z,28.81
2022-07-25T18:46:24.228Z,28.76
2022-07-25T18:48:51.304Z,28.80
2022-07-25T18:51:17.875Z,28.79
2022-07-25T18:53:47.938Z,28.75
2022-07-25T18:56:15.019Z,28.52
2022-07-25T18:58:41.434Z,28.60
2022-07-25T19:01:09.224Z,28.57
2022-07-25T19:03:37.360Z,28.58
2022-07-25T19:06:04.537Z,28.55
2022-07-25T19:08:31.052Z,28.55
2022-07-25T19:10:57.532Z,28.43
2022-07-25T19:13:47.697Z,28.42
2022-07-25T19:16:11.837Z,28.33
2022-07-25T19:18:39.268Z,28.40
2022-07-25T19:21:05.919Z,28.38
2022-07-25T19:23:32.622Z,28.22
2022-07-25T19:26:00.365Z,28.21
2022-07-25T19:28:28.788Z,28.10
2022-07-25T19:30:56.451Z,28.09
2022-07-25T19:33:23.024Z,27.88
2022-07-25T19:35:49.548Z,27.75
2022-07-25T19:38:15.963Z,27.28
2022-07-25T19:40:42.912Z,27.46
2022-07-25T19:43:09.423Z,27.35
2022-07-25T19:45:36.369Z,27.26
2022-07-25T19:48:02.809Z,27.16
2022-07-25T19:50:29.312Z,26.91
2022-07-25T19:52:55.840Z,26.95
2022-07-25T19:55:22.384Z,27.01
2022-07-25T19:57:48.800Z,26.75
2022-07-25T20:00:15.623Z,26.85
2022-07-25T20:02:42.108Z,26.75
2022-07-25T20:05:09.982Z,26.70
2022-07-25T20:07:36.431Z,26.68
2022-07-25T20:10:04.356Z,26.34
2022-07-25T20:12:33.397Z,26.37
2022-07-25T20:14:59.910Z,26.26
2022-07-25T20:17:26.769Z,26.09
2022-07-25T20:19:53.363Z,26.12
2022-07-25T20:22:19.947Z,25.81
2022-07-25T20:24:46.438Z,25.85
2022-07-25T20:27:12.872Z,25.51
2022-07-25T20:29:39.312Z,25.66
2022-07-25T20:32:05.962Z,25.55
2022-07-25T20:34:32.633Z,25.40
2022-07-25T20:36:59.060Z,25.45
2022-07-25T20:39:26.367Z,25.51
2022-07-25T20:41:55.249Z,25.30
2022-07-25T20:44:21.804Z,25.26
2022-07-25T20:46:48.239Z,25.41
2022-07-25T20:49:14.720Z,25.29
2022-07-25T20:51:41.208Z,25.31
2022-07-25T20:54:07.888Z,25.30
2022-07-25T20:56:34.316Z,25.18
2022-07-25T20:59:00.786Z,25.19
2022-07-25T21:01:27.333Z,25.15
2022-07-25T21:03:53.831Z,25.11
2022-07-25T21:06:20.278Z,25.12
2022-07-25T21:08:53.821Z,24.97
2022-07-25T21:11:20.284Z,24.93
2022-07-25T21:13:46.767Z,24.92
2022-07-25T21:16:13.424Z,24.98
2022-07-25T21:18:39.911Z,24.92
2022-07-25T21:21:11.722Z,24.98
2022-07-25T21:23:38.866Z,25.03
2022-07-25T21:26:05.721Z,24.80
2022-07-25T21:28:32.232Z,24.70
2022-07-25T21:30:58.694Z,24.66
2022-07-25T21:33:25.196Z,24.58
2022-07-25T21:35:53.666Z,24.62
2022-07-25T21:38:27.407Z,24.59
2022-07-25T21:40:55.361Z,24.46
2022-07-25T21:43:21.852Z,24.39
2022-07-25T21:45:48.373Z,24.44
2022-07-25T21:48:14.943Z,24.39
2022-07-25T21:50:44.014Z,24.09
2022-07-25T21:53:13.729Z,24.14
2022-07-25T21:55:40.621Z,24.13
2022-07-25T21:58:07.823Z,24.26
2022-07-25T22:00:40.038Z,24.11
2022-07-25T22:03:11.786Z,24.02
2022-07-25T22:05:38.249Z,24.08
2022-07-25T22:08:05.116Z,24.07
2022-07-25T22:10:31.634Z,24.06
2022-07-25T22:12:58.074Z,23.89
2022-07-25T22:15:24.579Z,23.77
2022-07-25T22:17:51.018Z,23.68
2022-07-25T22:20:19.320Z,23.54
2022-07-25T22:22:48.002Z,23.64
2022-07-25T22:25:15.537Z,23.69
2022-07-25T22:27:43.094Z,23.69
2022-07-25T22:30:14.702Z,23.56
2022-07-25T22:32:44.762Z,23.41
2022-07-25T22:35:12.494Z,23.44
2022-07-25T22:37:38.970Z,23.48
2022-07-25T22:40:06.051Z,23.49
2022-07-25T22:42:32.484Z,23.34
2022-07-25T22:44:58.953Z,23.47
2022-07-25T22:47:25.390Z,23.24
2022-07-25T22:49:51.823Z,23.23
2022-07-25T22:52:18.300Z,23.23
2022-07-25T22:54:44.791Z,23.28
2022-07-25T22:57:11.211Z,23.30
2022-07-25T22:59:37.666Z,23.26
2022-07-25T23:02:04.557Z,23.15
2022-07-25T23:04:31.051Z,23.03
2022-07-25T23:06:57.589Z,22.97
2022-07-25T23:09:24.037Z,23.03
2022-07-25T23:11:50.671Z,22.84
2022-07-25T23:14:17.111Z,22.85
2022-07-25T23:16:43.640Z,22.74
2022-07-25T23:19:10.556Z,22.80
2022-07-25T23:21:37.195Z,22.55
2022-07-25T23:24:05.690Z,22.60
2022-07-25T23:26:32.116Z,22.43
2022-07-25T23:28:58.563Z,22.62
2022-07-25T23:31:25.039Z,22.56
2022-07-25T23:33:51.501Z,22.50
2022-07-25T23:36:17.935Z,22.54
2022-07-25T23:38:44.378Z,22.39
2022-07-25T23:41:10.814Z,22.40
2022-07-25T23:43:56.555Z,22.42
2022-07-25T23:46:27.894Z,22.34
2022-07-25T23:48:57.362Z,22.36
2022-07-25T23:51:23.882Z,22.33
2022-07-25T23:53:50.394Z,22.30
2022-07-25T23:56:20.817Z,22.36
2022-07-25T23:58:49.870Z,22.21
